Latest Weather Observations for Cairns Racecourse

IDQ60801

Issued at 6:02 pm EST Tuesday 21 April 2015 (issued every 30 minutes, with the page automatically refreshed every 10 minutes)

About weather observations | Map of weather stations | Latest weather observations for QLD | Other Formats
Station Details ID: 031222 Name: CAIRNS RACECOURSE Lat: -16.95 Lon: 145.75 Height: 4.1 m
Data from the previous 72 hours. | See also: Recent months for locations in Queensland
Date/Time
EST
Temp
°C
App
Temp
°C
Dew
Point
Rel
Hum
%
Delta-T
°C
Wind Press
QNH
hPa
Press
MSL
hPa
Rain
since 9 am
mm
Dir
 
Spd
km/h
Gust
km/h
Spd
kts
Gust
kts
21/06:00pm 25.2 26.8 20.0 73 3.4 SSE 11 17 6 9 - - 0.0
21/05:30pm 25.6 26.9 20.2 72 3.5 SSE 13 19 7 10 - - 0.0
21/05:00pm 25.5 25.7 20.1 72 3.5 SSE 19 28 10 15 - - 0.0
21/04:30pm 26.4 27.2 20.7 71 3.7 SSE 17 26 9 14 - - 0.0
21/04:00pm 25.9 26.0 20.0 70 3.8 SE 19 26 10 14 - - 0.0
21/03:30pm 25.9 25.8 20.0 70 3.8 SSE 20 32 11 17 - - 0.0
21/03:00pm 26.8 28.0 20.6 69 4.1 SSE 15 24 8 13 - - 0.0
21/02:30pm 26.6 27.1 20.0 67 4.3 SE 17 30 9 16 - - 0.0
21/02:00pm 27.0 27.0 20.1 66 4.5 SE 20 33 11 18 - - 0.0
21/01:30pm 27.7 27.0 20.3 64 4.9 SSE 24 41 13 22 - - 0.0
21/01:00pm 27.9 27.8 19.9 61 5.2 SSE 20 32 11 17 - - 0.0
21/12:30pm 27.2 27.1 20.0 64 4.7 SE 20 35 11 19 - - 0.0
21/12:00pm 27.3 26.4 19.9 64 4.8 SSE 24 39 13 21 - - 0.0
21/11:30am 27.8 27.8 20.9 66 4.6 SE 22 43 12 23 - - 0.0
21/11:00am 27.1 28.1 20.2 66 4.5 SSE 15 26 8 14 - - 0.0
21/10:30am 26.7 27.7 20.3 68 4.2 SSE 15 20 8 11 - - 0.0
21/10:00am 27.0 27.4 19.9 65 4.6 SSE 17 24 9 13 - - 0.0
21/09:30am 25.7 26.8 20.5 73 3.4 SE 15 22 8 12 - - 0.0
21/09:00am 25.0 25.7 20.5 76 2.9 SSE 17 22 9 12 - - 6.4
21/08:30am 24.3 25.3 20.2 78 2.7 SSE 15 19 8 10 - - 6.4
21/08:00am 23.9 24.9 20.2 80 2.4 SSE 15 20 8 11 - - 6.4
21/07:30am 23.8 25.3 20.5 82 2.1 SSE 13 20 7 11 - - 6.4
21/07:00am 22.9 24.3 20.4 86 1.6 SSE 13 19 7 10 - - 6.4
21/06:30am 22.8 23.8 20.3 86 1.6 SSE 15 26 8 14 - - 6.4
21/06:00am 23.0 23.7 20.5 86 1.6 SSE 17 28 9 15 - - 6.4
21/05:30am 23.1 24.3 20.6 86 1.6 SSE 15 20 8 11 - - 6.4
21/05:00am 23.1 24.0 20.8 87 1.5 SSE 17 24 9 13 - - 6.4
21/04:30am 23.2 24.2 21.1 88 1.4 SSE 17 28 9 15 - - 6.4
21/04:00am 23.3 24.1 21.4 89 1.3 S 19 28 10 15 - - 6.4
21/03:30am 23.3 24.6 21.6 90 1.1 SSE 17 24 9 13 - - 6.4
21/03:00am 23.3 24.7 21.9 92 0.9 S 17 20 9 11 - - 6.4
21/02:30am 23.5 25.2 22.3 93 0.8 S 17 26 9 14 - - 6.2
21/02:00am 23.6 27.9 22.6 94 0.7 S 4 11 2 6 - - 6.2
21/01:30am 23.6 26.5 22.4 93 0.8 ESE 11 19 6 10 - - 5.8
21/01:00am 23.4 28.5 22.6 95 0.5 CALM 0 0 0 0 - - 5.0
21/12:30am 23.5 27.8 22.7 95 0.5 SSE 4 9 2 5 - - 5.0
 
Date/Time
EST
Temp
°C
App
Temp
°C
Dew
Point
Rel
Hum
%
Delta-T
°C
Wind Press
QNH
hPa
Press
MSL
hPa
Rain
since 9 am
mm
Dir
 
Spd
km/h
Gust
km/h
Spd
kts
Gust
kts
20/11:30pm 23.7 27.1 22.7 94 0.7 SSE 9 13 5 7 - - 5.0
20/11:00pm 23.7 27.1 22.7 94 0.7 S 9 15 5 8 - - 5.0
20/10:30pm 23.9 27.0 22.9 94 0.7 SSE 11 20 6 11 - - 4.8
20/10:00pm 24.0 27.2 23.1 95 0.6 S 11 15 6 8 - - 4.8
20/09:30pm 23.5 26.7 22.3 93 0.8 SE 9 15 5 8 - - 4.4
20/09:00pm 25.2 28.0 22.3 84 1.9 ESE 11 17 6 9 - - 0.0
20/08:30pm 25.3 28.8 22.2 83 2.1 SSE 7 11 4 6 - - 0.0
20/08:00pm 25.4 28.2 22.3 83 2.1 S 11 17 6 9 - - 0.0
20/07:30pm 25.9 28.3 22.2 80 2.5 SSE 13 19 7 10 - - 0.0
20/07:00pm 26.3 28.4 22.4 79 2.6 SSW 15 20 8 11 - - 0.0
20/06:30pm 26.4 29.3 22.5 79 2.6 S 11 17 6 9 - - 0.0
20/06:00pm 26.9 29.7 22.3 76 3.1 SSE 11 17 6 9 - - 0.0
20/05:30pm 27.4 30.0 22.6 75 3.2 ESE 13 20 7 11 - - 0.0
20/05:00pm 27.6 30.4 23.0 76 3.1 SE 13 20 7 11 - - 0.0
20/04:30pm 27.7 29.4 23.1 76 3.1 ESE 19 30 10 16 - - 0.0
20/04:00pm 28.0 28.7 22.9 74 3.5 ESE 24 39 13 21 - - 0.0
20/03:30pm 28.3 29.6 22.3 70 4.1 ESE 19 33 10 18 - - 0.0
20/03:00pm 29.7 31.7 22.9 67 4.6 SE 17 22 9 12 - - 0.0
20/02:30pm 28.5 30.0 22.7 71 3.9 SE 19 32 10 17 - - 0.0
20/02:00pm 28.4 28.8 22.4 70 4.1 ESE 24 35 13 19 - - 0.0
20/01:30pm 29.5 30.5 22.2 65 4.9 ESE 20 26 11 14 - - 0.0
20/01:00pm 30.6 32.8 23.3 65 5.0 SE 17 28 9 15 - - 0.0
20/12:30pm 29.7 31.3 22.9 67 4.6 ESE 19 26 10 14 - - 0.0
20/12:00pm 29.5 31.7 23.2 69 4.3 SE 17 24 9 13 - - 0.0
20/11:30am 29.1 30.1 22.1 66 4.7 SE 20 28 11 15 - - 0.0
20/11:00am 29.6 31.0 22.6 66 4.8 SE 19 32 10 17 - - 0.0
20/10:30am 29.1 30.5 22.8 69 4.3 SE 20 30 11 16 - - 0.0
20/10:00am 28.3 30.6 23.4 75 3.4 SSE 17 26 9 14 - - 0.0
20/09:30am 27.5 29.5 22.9 76 3.1 SSE 17 24 9 13 - - 0.0
20/09:00am 26.8 29.5 22.8 79 2.7 SSE 13 19 7 10 - - 0.2
20/08:30am 27.2 29.1 22.8 77 3.0 S 17 22 9 12 - - 0.2
20/08:00am 26.3 29.9 23.0 82 2.2 S 9 15 5 8 - - 0.2
20/07:30am 24.9 27.5 22.0 84 1.9 S 11 15 6 8 - - 0.2
20/07:00am 23.7 27.2 22.1 91 1.1 SSE 7 11 4 6 - - 0.2
20/06:30am 22.6 25.6 21.2 92 0.9 S 7 9 4 5 - - 0.2
20/06:00am 22.9 26.0 21.4 91 1.0 ESE 7 9 4 5 - - 0.2
20/05:30am 23.1 25.9 21.5 91 1.1 SSE 9 11 5 6 - - 0.2
20/05:00am 23.6 26.8 21.7 89 1.3 SE 7 9 4 5 - - 0.2
20/04:30am 23.8 26.8 21.9 89 1.3 SSE 9 15 5 8 - - 0.2
20/04:00am 23.3 27.1 21.7 91 1.1 SE 4 7 2 4 - - 0.2
20/03:30am 23.3 27.8 21.6 90 1.1 CALM 0 0 0 0 - - 0.2
20/03:00am 23.1 27.4 21.2 89 1.2 CALM 0 6 0 3 - - 0.2
20/02:30am 23.8 26.9 21.5 87 1.5 E 7 9 4 5 - - 0.2
20/02:00am 24.1 26.8 21.4 85 1.8 S 9 13 5 7 - - 0.2
20/01:30am 23.7 27.0 21.4 87 1.5 SSE 6 7 3 4 - - 0.2
20/01:00am 24.1 27.2 21.4 85 1.8 SSE 7 9 4 5 - - 0.2
20/12:30am 24.9 27.7 21.6 82 2.2 SSE 9 13 5 7 - - 0.2
20/12:00am 24.4 27.8 21.7 85 1.8 SE 6 7 3 4 - - 0.2
 
Date/Time
EST
Temp
°C
App
Temp
°C
Dew
Point
Rel
Hum
%
Delta-T
°C
Wind Press
QNH
hPa
Press
MSL
hPa
Rain
since 9 am
mm
Dir
 
Spd
km/h
Gust
km/h
Spd
kts
Gust
kts
19/11:30pm 24.7 27.9 21.6 83 2.1 S 7 15 4 8 - - 0.2
19/11:00pm 24.7 27.6 21.8 84 1.9 SSW 9 11 5 6 - - 0.2
19/10:30pm 25.1 28.1 22.0 83 2.1 SSE 9 13 5 7 - - 0.2
19/10:00pm 25.3 28.4 22.2 83 2.1 S 9 15 5 8 - - 0.2
19/09:30pm 25.1 27.7 22.0 83 2.1 S 11 17 6 9 - - 0.2
19/09:00pm 25.6 28.0 22.3 82 2.2 SSE 13 22 7 12 - - 0.2
19/08:30pm 25.5 28.0 22.4 83 2.1 S 13 19 7 10 - - 0.2
19/08:00pm 25.5 27.9 22.2 82 2.2 S 13 19 7 10 - - 0.2
19/07:30pm 25.3 28.2 21.8 81 2.3 S 9 13 5 7 - - 0.2
19/07:00pm 25.7 29.0 21.8 79 2.6 SSE 7 11 4 6 - - 0.2
19/06:30pm 26.1 29.6 22.2 79 2.6 SE 7 11 4 6 - - 0.2
19/06:00pm 26.9 29.2 22.1 75 3.2 ESE 13 17 7 9 - - 0.2
19/05:30pm 28.2 29.2 21.0 65 4.8 SE 17 28 9 15 - - 0.2
19/05:00pm 29.0 30.7 21.0 62 5.3 SE 13 24 7 13 - - 0.2
19/04:30pm 29.5 30.0 20.9 60 5.7 ESE 19 26 10 14 - - 0.2
19/04:00pm 30.2 31.3 21.3 59 6.0 ESE 17 24 9 13 - - 0.2
19/03:30pm 30.2 30.3 20.4 55 6.5 SE 20 28 11 15 - - 0.2
19/03:00pm 30.5 31.4 21.6 59 6.0 ESE 19 26 10 14 - - 0.2
19/02:30pm 30.2 31.0 21.8 60 5.7 E 20 28 11 15 - - 0.2
19/02:00pm 30.3 31.1 21.7 60 5.8 ESE 20 32 11 17 - - 0.2
19/01:30pm 30.0 30.9 21.9 62 5.5 ESE 20 32 11 17 - - 0.2
19/01:00pm 30.3 31.3 22.2 62 5.5 SE 20 32 11 17 - - 0.2
19/12:30pm 30.0 31.2 22.2 63 5.3 SE 19 28 10 15 - - 0.2
19/12:00pm 29.8 31.4 22.8 66 4.8 ESE 19 28 10 15 - - 0.2
19/11:30am 29.3 30.1 22.5 67 4.6 SE 22 30 12 16 - - 0.2
19/11:00am 28.8 30.1 22.3 68 4.4 SE 19 30 10 16 - - 0.2
19/10:30am 28.4 30.6 22.6 71 3.9 SE 15 20 8 11 - - 0.2
19/10:00am 27.9 31.2 23.9 79 2.8 SE 13 19 7 10 - - 0.2
19/09:30am 26.8 31.2 24.5 87 1.6 S 9 13 5 7 - - 0.2
19/09:00am 26.8 30.0 23.7 83 2.1 S 13 20 7 11 - - 34.4
19/08:30am 26.0 29.0 23.3 85 1.8 S 13 17 7 9 - - 34.4
19/08:00am 25.2 28.1 23.1 88 1.4 SSE 13 20 7 11 - - 34.2
19/07:30am 25.1 28.0 23.2 89 1.3 S 13 19 7 10 - - 34.0
19/07:00am 24.5 27.2 22.9 91 1.1 SSE 13 24 7 13 - - 34.0
19/06:30am 24.5 27.2 22.9 91 1.1 S 13 20 7 11 - - 34.0
19/06:00am 24.4 27.7 23.2 93 0.8 S 11 17 6 9 - - 34.0
19/05:30am 24.2 27.8 23.0 93 0.8 SE 9 15 5 8 - - 34.0
19/05:00am 24.2 28.1 23.0 93 0.8 SSE 7 11 4 6 - - 33.8
19/04:30am 24.4 27.1 22.8 91 1.1 SSW 13 17 7 9 - - 33.6
19/04:00am 24.1 27.0 23.1 94 0.7 SSW 13 20 7 11 - - 33.6
19/03:30am 24.1 27.3 23.1 94 0.7 SSW 11 17 6 9 - - 32.2
19/03:00am 24.4 28.1 23.2 93 0.8 ESE 9 13 5 7 - - 31.4
19/02:30am 24.8 28.3 22.9 89 1.3 S 9 19 5 10 - - 30.2
19/02:00am 24.9 28.1 23.1 90 1.2 S 11 19 6 10 - - 30.2
19/01:30am 24.7 26.9 23.3 92 1.0 S 17 24 9 13 - - 30.2
19/01:00am 24.8 28.6 23.4 92 1.0 S 9 15 5 8 - - 30.2
19/12:30am 24.7 28.1 23.3 92 1.0 S 11 17 6 9 - - 30.2
19/12:00am 24.7 28.1 23.3 92 1.0 S 11 17 6 9 - - 30.0
 
Date/Time
EST
Temp
°C
App
Temp
°C
Dew
Point
Rel
Hum
%
Delta-T
°C
Wind Press
QNH
hPa
Press
MSL
hPa
Rain
since 9 am
mm
Dir
 
Spd
km/h
Gust
km/h
Spd
kts
Gust
kts
18/11:30pm 24.5 28.9 23.5 94 0.7 SSE 6 9 3 5 - - 30.0
18/11:00pm 24.8 27.8 23.4 92 1.0 S 13 20 7 11 - - 29.6
18/10:30pm 24.7 28.4 23.3 92 1.0 SSE 9 11 5 6 - - 29.6
18/10:00pm 24.8 28.2 23.4 92 1.0 S 11 15 6 8 - - 29.2
18/09:30pm 24.6 28.0 23.4 93 0.8 S 11 17 6 9 - - 29.2
18/09:00pm 24.6 27.7 23.6 94 0.7 S 13 17 7 9 - - 28.8
18/08:30pm 24.3 28.5 23.4 95 0.6 SSW 7 11 4 6 - - 28.6
18/08:00pm 24.4 28.2 23.5 95 0.6 E 9 15 5 8 - - 28.0
18/07:30pm 24.3 29.8 23.4 95 0.6 CALM 0 0 0 0 - - 25.6
18/07:00pm 24.3 28.1 23.4 95 0.6 SW 9 13 5 7 - - 25.4
18/06:30pm 24.5 29.6 23.3 93 0.8 S 2 7 1 4 - - 21.6

Other Formats:

Comma delimited format used in spreadsheet applications
http://www.bom.gov.au/fwo/IDQ60801/IDQ60801.94288.axf

JavaScript Object Notation format (JSON) in row-major order
http://www.bom.gov.au/fwo/IDQ60801/IDQ60801.94288.json